AirNav   Everest Fuels
 
 433 users online  

1PS6 Aria Health-Torresdale Division Heliport
Philadelphia, Pennsylvania, USA

GOING TO PHILADELPHIA?


FAA INFORMATION EFFECTIVE 18 JUNE 2020

Location

FAA Identifier: 1PS6
Lat/Long: 40-04-10.7900N 074-58-56.6300W
40-04.179833N 074-58.943833W
40.0696639,-74.9823972
(estimated)
Elevation: 99 ft. / 30 m (estimated)
Variation: 12W (1980)
Time zone: UTC -4 (UTC -5 during Standard Time)
Zip code: 19114

Heliport Operations

Heliport use: Private use, MEDICAL USE.
Activation date: 12/1986
Control tower: no
ARTCC: NEW YORK CENTER
FSS: WILLIAMSPORT FLIGHT SERVICE STATION
Attendance: CONTINUOUS
Wind indicator: lighted
Segmented circle: no

Heliport Communications

UNICOM: 122.95
WX ASOS at PNE (1.5 nm NW): 121.15 (215-677-0146)
WX ASOS at VAY (10 nm SE): 119.325 (609-267-1176)
WX AWOS-3 at LOM (14 nm W): 118.925 (215-646-1068)
WX ASOS at TTN (15 nm NE): 126.775 (609-538-8690)
WX ASOS at PHL (17 nm SW): PHONE 215-492-9617
WX ASOS at DYL (17 nm N): 118.875 (215-345-0392)

Nearby radio navigation aids

VOR radial/distance  VOR name  Freq  Var
ARDr207/11.5YARDLEY VOR/DME108.2010W
GXUr294/18.1MC GUIRE VORTAC110.6012W
RBVr260/23.7ROBBINSVILLE VORTAC113.8010W
PTWr118/28.0POTTSTOWN VORTAC116.5009W
CYNr311/29.5COYLE VORTAC113.4010W
OODr040/29.9WOODSTOWN VORTAC112.8010W
VCNr009/31.9CEDAR LAKE VOR/DME115.2010W
SBJr210/32.7SOLBERG VOR/DME112.9010W
MXEr083/32.9MODENA VORTAC113.2009W
DQOr061/37.1DUPONT VORTAC114.0010W

 
NDB name  Hdg/Dist  Freq  Var  ID
AMBLER116/14.327512WING .. -. --.
LAKEHURST284/29.739611WNEL -. . .-..
RAINBOW021/39.736311WRNB .-. -. -...

Heliport Services

Runway Information

Helipad H1

Dimensions: 65 x 65 ft. / 20 x 20 m
Surface: asphalt
Runway edge lights: PERI
Latitude: 40-04.179833N
Longitude: 074-58.943833W
Elevation: 99.0 ft.
Traffic pattern: leftleft

Heliport Ownership and Management from official FAA records

Ownership: Privately-owned
Owner: 10800 KNIGHTS ROAD
10800 KNIGHTS ROAD
PHILADELPHIA, PA 19114
Phone 215-612-4000
Manager: DARRYL BEARD
10800 KNIGHTS ROAD
PHILADELPHIA, PA 19114
Phone 215-612-4000

Additional Remarks

FOR CD CTC PHILADELPHIA APCH AT 800-354-9884.
(CONTACT TITLE) OTR CTC JOHN.ARDENTE@JEFFERSON.EDU

Instrument Procedures

There are no published instrument procedures at 1PS6.

Some nearby airports with instrument procedures:

KPNE - Northeast Philadelphia Airport (1 nm NW)
KVAY - South Jersey Regional Airport (10 nm SE)
N14 - Flying W Airport (11 nm SE)
KLOM - Wings Field Airport (14 nm W)
KTTN - Trenton Mercer Airport (15 nm NE)
KPHL - Philadelphia International Airport (17 nm SW)
KDYL - Doylestown Airport (17 nm N)
19N - Camden County Airport (18 nm S)
KWRI - McGuire Field (Joint Base Mc Guire Dix Lakehurst) Airport (18 nm E)
N87 - Trenton-Robbinsville Airport (19 nm NE)
 
Loc | Ops | Rwys | IFR | FBO | Links
Com | Nav | Svcs | Stats | Notes
Area around 1PS6 (Aria Health-Torresdale Division Heliport)
 
Road maps at: MapQuest Bing Google
 
Aerial photo
No photo
 
Sectional chart

 
Airport distance calculator
Flying to Aria Health-Torresdale Division Heliport? Find the distance to fly.

From to 1PS6

Sunrise and sunset
Times for 05-Jul-2020
 Local
(UTC-4)
 Zulu
(UTC)
Morning civil twilight05:0609:06
Sunrise05:3809:38
Sunset20:3100:31
Evening civil twilight21:0301:03

Current date and time
Zulu (UTC)  05-Jul-2020 05:00:21
Local (UTC-4)  05-Jul-2020 01:00:21
 
METAR
KPNE 
2nm NW 
050454Z AUTO 16003KT 6SM HZ CLR 25/22 A2995 RMK AO2 SLP140 T02500217 403390233
KVAY 
11nm SE 
ASOS 119.325 609-267-1176
050454Z AUTO 00000KT 10SM CLR 22/21 A2995 RMK AO2 SLP140 T02220206 403110211
KLOM 
14nm W 
050435Z AUTO 22004KT 10SM CLR 24/21 A2996 RMK AO2 T02400210
KTTN 
15nm NE 
ASOS 133.70 609-538-8690
050453Z AUTO 17006KT 7SM CLR 22/21 A2993 RMK AO2 SLP128 T02220206 403170211
KPHL 
17nm SW 
050454Z 20009KT 10SM FEW080 FEW250 24/21 A2994 RMK AO2 SLP139 T02440211 403330228
KDYL 
17nm N 
050454Z AUTO 20003KT 10SM FEW110 23/18 A2994 RMK AO2 SLP131 T02280178 403280217
KWRI 
19nm E 
050356Z AUTO 14004KT 10SM CLR 21/20 A2995 RMK AO2 SLP141 T02110201 TSNO $
TAF
KPNE 
2nm NW 
042217Z 0422/0518 11005KT P6SM VCSH SCT035 BKN080 FM050000 VRB03KT P6SM SCT080 FM050900 VRB02KT 6SM BR SCT070 FM051200 VRB02KT P6SM SCT070 FM051400 32005KT P6SM FEW100
KTTN 
15nm NE 
041720Z 0418/0518 06007KT P6SM SCT025 BKN035 FM042000 07003KT P6SM VCTS SCT035CB BKN080 FM042300 VRB03KT P6SM SCT080 FM050900 00000KT 5SM BR SCT010 FM051200 VRB03KT P6SM FEW070 FM051400 33004KT P6SM FEW150
KPHL 
17nm SW 
050241Z 0503/0606 19006KT P6SM SCT150 FM050400 VRB03KT P6SM SCT080 FM051400 27005KT P6SM FEW080 FEW150 FM052000 24006KT P6SM SCT080
KWRI 
19nm E 
050200Z 0502/0608 10006KT 9999 FEW050 QNH2994INS BECMG 0502/0503 VRB05KT 9999 FEW050 SCT120 QNH2995INS TEMPO 0504/0510 6000 BR BKN120 BECMG 0509/0510 27004KT 8000 BR FEW120 QNH2997INS BECMG 0512/0513 26006KT 9999 NSW FEW040 QNH2996INS BECMG 0516/0517 24009KT 9999 BKN040 QNH2992INS BECMG 0604/0605 22004KT 9999 SKC QNH2999INS TX32/0520Z TN20/0510Z
NOTAMs
Click for the latest NOTAMs
NOTAMs are issued by the DoD/FAA and will open in a separate window not controlled by AirNav.

 

 
 

Would you like to see your business listed on this page?

 If your business provides an interesting product or service to pilots, flight crews, aircraft, or users of the Aria Health-Torresdale Division Heliport, you should consider listing it here.  To start the listing process, click on the button below
 
Add a business
 

Other Pages about Aria Health-Torresdale Division Heliport

Update a link
 
Copyright © AirNav, LLC. All rights reserved. Privacy Policy  Contact